»·PEaware :: N160RA KSNA-KLAX

N160RA :: KSNA-KLAX

FLIGHT INFORMATION

Flight Status: Arrived
Operator: Privately registered:
United States
More flights under this callsign
Pilot: Cody B. (17747)
Aircraft: CESSNA 172 SKYHAWK
(C172)
More flights by this aircraft type
Origin: KSNA John Wayne-Orange Co
United States
Destination: KLAX Los Angeles Intl
United States
More flights between these airports :: More routes between these airports
Route: +SLI V8 TANDY
File this flight plan on PilotEdge
Remarks: TEC route CSTP7
Altitude:
(Current/Filed)
4,000ft
Speed:
(Current/Filed)
110kts
Departed: 10-Feb-20 11:30 AM
Arrived: 10-Feb-20 11:54 AM
Distance/Time
Traveled:
31nm/0:24
Distance/Time
To Go:
Arrived

Flight Plot

Page will automatically refresh every two minutes.


Map Options




Map Legend


Flown Route
Filed Route
Departure Airport
Arrival Airport
Navaid (VOR, NDB)
Fix

Horizontal Profiles

Position Reports

Time Latitude Longitude Heading Altitude Ground
Speed
10-Feb-20 10:51 33.672005 -117.867539 210 60ft 0kts
10-Feb-20 10:52 33.672005 -117.867539 210 60ft 0kts
10-Feb-20 10:53 33.672005 -117.867539 210 60ft 0kts
10-Feb-20 10:54 33.672005 -117.867539 210 60ft 0kts
10-Feb-20 10:55 33.672005 -117.867539 210 60ft 0kts
10-Feb-20 10:56 33.672005 -117.867539 210 60ft 0kts
10-Feb-20 10:57 33.672005 -117.867539 210 60ft 0kts
10-Feb-20 10:58 33.672005 -117.867539 210 60ft 0kts
10-Feb-20 10:59 33.672005 -117.867539 210 60ft 0kts
10-Feb-20 11:00 33.672005 -117.867539 210 60ft 0kts
10-Feb-20 11:01 33.672005 -117.867539 210 60ft 0kts
10-Feb-20 11:02 33.672005 -117.867539 210 60ft 0kts
10-Feb-20 11:03 33.672005 -117.867539 210 60ft 0kts
10-Feb-20 11:04 33.672005 -117.867539 210 60ft 0kts
10-Feb-20 11:05 33.672005 -117.867539 210 60ft 0kts
10-Feb-20 11:06 33.672005 -117.867539 210 60ft 0kts
10-Feb-20 11:07 33.672005 -117.867539 210 60ft 0kts
10-Feb-20 11:08 33.672005 -117.867539 210 60ft 0kts
10-Feb-20 11:09 33.672005 -117.867539 210 60ft 0kts
10-Feb-20 11:10 33.672005 -117.867539 210 60ft 0kts
10-Feb-20 11:11 33.672005 -117.867539 210 60ft 0kts
10-Feb-20 11:12 33.672005 -117.867539 210 60ft 0kts
10-Feb-20 11:13 33.672005 -117.867539 210 60ft 0kts
10-Feb-20 11:14 33.672005 -117.867539 210 60ft 0kts
10-Feb-20 11:15 33.672005 -117.867539 210 60ft 0kts
10-Feb-20 11:16 33.672005 -117.867539 210 60ft 0kts
10-Feb-20 11:17 33.672005 -117.867539 210 60ft 0kts
10-Feb-20 11:18 33.672005 -117.867539 210 60ft 0kts
10-Feb-20 11:19 33.672005 -117.867539 210 60ft 0kts
10-Feb-20 11:20 33.672005 -117.867539 210 60ft 0kts
10-Feb-20 11:21 33.672005 -117.867539 210 60ft 0kts
10-Feb-20 11:22 33.672005 -117.867539 210 60ft 0kts
10-Feb-20 11:23 33.672005 -117.867539 210 60ft 0kts
10-Feb-20 11:24 33.673199 -117.867143 46 60ft 9kts
10-Feb-20 11:25 33.674096 -117.867097 28 60ft 7kts
10-Feb-20 11:26 33.674710 -117.866726 29 60ft 10kts
10-Feb-20 11:27 33.678115 -117.864550 27 60ft 16kts
10-Feb-20 11:28 33.679995 -117.863742 285 60ft 0kts
10-Feb-20 11:29 33.672243 -117.869260 212 240ft 77kts
10-Feb-20 11:30 33.657432 -117.890909 233 973ft 91kts
10-Feb-20 11:31 33.641679 -117.915683 234 1706ft 98kts
10-Feb-20 11:32 33.624693 -117.942444 232 2391ft 100kts
10-Feb-20 11:33 33.617055 -117.970539 321 2983ft 101kts
10-Feb-20 11:34 33.640330 -117.990601 324 3494ft 107kts
10-Feb-20 11:35 33.664107 -118.012532 324 3964ft 108kts
10-Feb-20 11:36 33.690602 -118.037234 324 3984ft 126kts
10-Feb-20 11:37 33.718675 -118.063168 325 3983ft 127kts
10-Feb-20 11:38 33.746893 -118.089161 325 3983ft 127kts
10-Feb-20 11:39 33.775130 -118.115103 325 3983ft 127kts
10-Feb-20 11:40 33.797232 -118.146341 284 3983ft 131kts
10-Feb-20 11:41 33.791819 -118.189272 262 3980ft 133kts
10-Feb-20 11:42 33.783827 -118.232954 251 3983ft 134kts
10-Feb-20 11:43 33.773643 -118.275678 260 3980ft 125kts
10-Feb-20 11:44 33.768373 -118.315098 272 3980ft 115kts
10-Feb-20 11:45 33.785824 -118.344946 313 3983ft 109kts
10-Feb-20 11:46 33.804859 -118.372232 313 3979ft 97kts
10-Feb-20 11:47 33.820191 -118.394847 313 3979ft 77kts
10-Feb-20 11:48 33.837193 -118.415022 334 3920ft 105kts
10-Feb-20 11:49 33.864815 -118.430927 339 3271ft 106kts
10-Feb-20 11:50 33.892028 -118.446004 335 2634ft 103kts
10-Feb-20 11:51 33.918869 -118.457448 5 1917ft 110kts
10-Feb-20 11:52 33.932625 -118.429454 81 661ft 83kts
10-Feb-20 11:53 33.934767 -118.407876 79 121ft 11kts
10-Feb-20 11:54 33.933718 -118.405870 106 119ft 0kts
10-Feb-20 11:55 33.933179 -118.405716 194 119ft 6kts
10-Feb-20 11:56 33.932872 -118.405432 11 118ft 0kts
10-Feb-20 11:57 33.932872 -118.405432 11 118ft 0kts
10-Feb-20 11:58 33.932872 -118.405432 11 118ft 0kts
10-Feb-20 11:59 33.932872 -118.405432 11 118ft 0kts
10-Feb-20 12:00 33.932872 -118.405432 11 118ft 0kts
10-Feb-20 12:01 33.932872 -118.405432 11 118ft 0kts
10-Feb-20 12:02 33.932872 -118.405432 11 118ft 0kts
10-Feb-20 12:03 33.932872 -118.405432 11 118ft 0kts
10-Feb-20 12:04 33.932872 -118.405432 11 118ft 0kts
10-Feb-20 12:05 33.932872 -118.405432 11 118ft 0kts
10-Feb-20 12:06 33.932872 -118.405432 11 118ft 0kts
10-Feb-20 12:07 33.932872 -118.405432 11 118ft 0kts

Navigation Log

Ident Type
Flight plan parsing failed, navigation log unavailable